Terminal Aerodrome Forecast
Issued by NWS

Home | Current Version | Previous Version | Text Only | Print | Product List | Glossary On
Versions: 1 2 3 4 5 6 7 8 9 10 11 12 13 14 15 16 17 18 19 20 21 22 23 24 25
143
FTUS41 KPBZ 121337 AAA
TAFAGC
TAF AMD
KAGC 121337Z 1214/1312 18007KT P6SM BKN100
     FM121800 25008KT 5SM -SN BKN025 OVC030
     FM130200 28015G28KT 4SM -SHSN BKN015 PROB30 1302/1305 1SM -SHSN
      BKN007=

USA.gov is the U.S. government's official web portal to all federal, state and local government web resources and services.